createdAt,value
2023-03-05T00:01:14.511Z,28.95
2023-03-05T00:03:41.998Z,28.10
2023-03-05T00:06:09.657Z,27.70
2023-03-05T00:08:37.470Z,30.42
2023-03-05T00:11:10.475Z,30.05
2023-03-05T00:13:38.624Z,29.95
2023-03-05T00:16:08.340Z,30.75
2023-03-05T00:18:36.295Z,31.23
2023-03-05T00:21:04.446Z,30.55
2023-03-05T00:23:32.401Z,29.63
2023-03-05T00:26:03.731Z,30.33
2023-03-05T00:28:31.013Z,29.85
2023-03-05T00:31:01.153Z,30.25
2023-03-05T00:33:28.952Z,30.65
2023-03-05T00:35:57.382Z,28.38
2023-03-05T00:38:25.098Z,29.75
2023-03-05T00:40:52.850Z,27.33
2023-03-05T00:43:20.648Z,25.85
2023-03-05T00:45:48.007Z,26.23
2023-03-05T00:48:15.462Z,26.55
2023-03-05T00:50:42.777Z,25.88
2023-03-05T00:53:10.132Z,26.05
2023-03-05T00:55:37.869Z,24.85
2023-03-05T00:58:05.151Z,25.27
2023-03-05T01:00:32.534Z,25.80
2023-03-05T01:02:59.934Z,26.52
2023-03-05T01:05:27.416Z,25.42
2023-03-05T01:07:56.075Z,26.38
2023-03-05T01:10:26.634Z,24.05
2023-03-05T01:12:55.085Z,24.92
2023-03-05T01:15:23.768Z,25.98
2023-03-05T01:17:51.490Z,24.70
2023-03-05T01:20:21.382Z,25.90
2023-03-05T01:22:49.247Z,25.70
2023-03-05T01:25:18.284Z,24.65
2023-03-05T01:27:46.075Z,23.75
2023-03-05T01:30:15.070Z,25.15
2023-03-05T01:32:43.071Z,26.15
2023-03-05T01:35:15.534Z,25.05
2023-03-05T01:37:43.246Z,27.58
2023-03-05T01:40:12.615Z,25.63
2023-03-05T01:42:39.918Z,25.85
2023-03-05T01:45:17.569Z,23.15
2023-03-05T01:47:45.470Z,23.30
2023-03-05T01:50:22.738Z,22.85
2023-03-05T01:53:11.479Z,22.50
2023-03-05T01:55:39.401Z,23.45
2023-03-05T01:58:11.314Z,22.15
2023-03-05T02:03:11.306Z,24.50
2023-03-05T02:05:43.256Z,24.95
2023-03-05T02:10:44.164Z,24.20
2023-03-05T02:13:18.933Z,24.42
2023-03-05T02:15:47.741Z,23.00
2023-03-05T02:18:16.837Z,16.30
2023-03-05T02:20:48.656Z,11.93
2023-03-05T02:23:18.370Z,17.92
2023-03-05T02:25:45.771Z,18.30
2023-03-05T02:28:26.623Z,16.30
2023-03-05T02:30:54.332Z,18.17
2023-03-05T02:33:21.705Z,19.05
2023-03-05T02:35:50.098Z,19.08
2023-03-05T02:38:19.833Z,18.85
2023-03-05T02:40:47.313Z,18.33
2023-03-05T02:43:16.955Z,20.13
2023-03-05T02:45:44.525Z,19.02
2023-03-05T02:48:11.960Z,21.92
2023-03-05T02:50:40.386Z,22.38
2023-03-05T02:53:07.994Z,16.45
2023-03-05T02:55:35.756Z,16.70
2023-03-05T02:58:03.889Z,15.27
2023-03-05T03:00:31.395Z,15.43
2023-03-05T03:02:58.812Z,13.35
2023-03-05T03:05:26.211Z,14.35
2023-03-05T03:07:53.983Z,13.95
2023-03-05T03:10:21.658Z,14.50
2023-03-05T03:12:48.951Z,14.73
2023-03-05T03:15:17.468Z,13.73
2023-03-05T03:17:45.355Z,14.48
2023-03-05T03:20:16.500Z,14.20
2023-03-05T03:22:46.310Z,14.85
2023-03-05T03:25:21.318Z,15.30
2023-03-05T03:27:52.416Z,15.63
2023-03-05T03:30:20.181Z,15.95
2023-03-05T03:32:47.721Z,16.40
2023-03-05T03:35:15.141Z,16.65
2023-03-05T03:37:42.946Z,16.35
2023-03-05T03:40:11.963Z,15.95
2023-03-05T03:42:39.309Z,15.15
2023-03-05T03:45:07.309Z,16.60
2023-03-05T03:47:35.008Z,15.88
2023-03-05T03:50:03.019Z,14.27
2023-03-05T03:52:30.347Z,15.30
2023-03-05T03:55:01.599Z,13.73
2023-03-05T03:57:33.596Z,14.25
2023-03-05T04:02:28.527Z,14.52
2023-03-05T04:04:56.233Z,14.73
2023-03-05T04:07:23.626Z,12.88
2023-03-05T04:09:51.986Z,14.10
2023-03-05T04:12:19.394Z,13.32
2023-03-05T04:14:48.344Z,12.20
2023-03-05T04:17:16.580Z,11.55
2023-03-05T04:19:44.948Z,10.18
2023-03-05T04:22:13.993Z,10.73
2023-03-05T04:24:41.939Z,11.43
2023-03-05T04:27:10.059Z,13.50
2023-03-05T04:29:38.420Z,11.52
2023-03-05T04:32:06.302Z,11.45
2023-03-05T04:34:34.057Z,11.90
2023-03-05T04:37:01.483Z,12.82
2023-03-05T04:39:28.808Z,12.70
2023-03-05T04:41:56.339Z,12.35
2023-03-05T04:44:25.940Z,13.70
2023-03-05T04:46:53.401Z,13.38
2023-03-05T04:49:20.628Z,11.88
2023-03-05T04:51:48.590Z,11.30
2023-03-05T04:54:16.366Z,11.75
2023-03-05T04:56:43.777Z,11.90
2023-03-05T04:59:11.302Z,11.93
2023-03-05T05:01:39.244Z,11.73
2023-03-05T05:04:06.771Z,12.80
2023-03-05T05:06:34.585Z,12.27
2023-03-05T05:09:01.861Z,12.00
2023-03-05T05:11:29.308Z,13.55
2023-03-05T05:13:56.618Z,13.70
2023-03-05T05:16:24.522Z,10.13
2023-03-05T05:18:52.281Z,9.90
2023-03-05T05:21:20.378Z,10.98
2023-03-05T05:23:47.679Z,10.80
2023-03-05T05:26:15.353Z,10.85
2023-03-05T05:28:43.964Z,11.13
2023-03-05T05:31:14.067Z,11.35
2023-03-05T05:33:41.778Z,10.18
2023-03-05T05:36:12.967Z,10.85
2023-03-05T05:38:40.821Z,11.75
2023-03-05T05:41:11.113Z,11.55
2023-03-05T05:43:39.118Z,10.77
2023-03-05T05:46:09.624Z,11.45
2023-03-05T05:48:37.074Z,12.77
2023-03-05T05:51:09.334Z,12.73
2023-03-05T05:53:37.266Z,12.05
2023-03-05T05:56:05.994Z,13.80
2023-03-05T05:58:33.963Z,13.85
2023-03-05T06:01:01.998Z,14.82
2023-03-05T06:03:29.339Z,13.10
2023-03-05T06:05:56.832Z,14.27
2023-03-05T06:08:24.090Z,15.95
2023-03-05T06:10:55.522Z,14.68
2023-03-05T06:13:23.776Z,14.27
2023-03-05T06:15:58.490Z,14.43
2023-03-05T06:18:25.823Z,14.23
2023-03-05T06:21:02.189Z,13.50
2023-03-05T06:23:29.660Z,11.40
2023-03-05T06:26:02.952Z,11.35
2023-03-05T06:28:30.710Z,11.65
2023-03-05T06:31:05.309Z,11.73
2023-03-05T06:33:33.378Z,10.32
2023-03-05T06:36:04.832Z,12.40
2023-03-05T06:38:33.149Z,11.80
2023-03-05T06:41:02.063Z,12.60
2023-03-05T06:43:29.341Z,15.35
2023-03-05T06:46:13.901Z,16.30
2023-03-05T06:48:43.264Z,18.15
2023-03-05T06:51:18.970Z,18.45
2023-03-05T06:53:49.280Z,20.73
2023-03-05T06:56:18.245Z,21.60
2023-03-05T06:58:47.910Z,22.88
2023-03-05T07:01:16.382Z,15.35
2023-03-05T07:03:43.957Z,14.55
2023-03-05T07:06:14.035Z,14.63
2023-03-05T07:08:42.229Z,14.60
2023-03-05T07:11:15.469Z,14.23
2023-03-05T07:13:43.513Z,15.15
2023-03-05T07:16:15.027Z,15.32
2023-03-05T07:18:42.855Z,16.60
2023-03-05T07:21:15.001Z,18.58
2023-03-05T07:23:42.411Z,18.75
2023-03-05T07:26:11.290Z,19.35
2023-03-05T07:28:38.956Z,26.98
2023-03-05T07:31:11.738Z,25.15
2023-03-05T07:33:39.160Z,27.90
2023-03-05T07:36:10.371Z,36.05
2023-03-05T07:38:38.265Z,34.63
2023-03-05T07:41:11.993Z,37.85
2023-03-05T07:43:39.849Z,39.88
2023-03-05T07:46:09.036Z,39.33
2023-03-05T07:48:36.797Z,46.67
2023-03-05T07:51:07.096Z,46.55
2023-03-05T07:53:35.604Z,44.88
2023-03-05T07:56:03.661Z,48.33
2023-03-05T07:58:31.051Z,48.35
2023-03-05T08:00:58.856Z,49.40
2023-03-05T08:03:26.216Z,46.53
2023-03-05T08:05:53.489Z,50.40
2023-03-05T08:08:20.862Z,51.38
2023-03-05T08:10:48.573Z,52.63
2023-03-05T08:13:16.889Z,57.40
2023-03-05T08:15:46.078Z,56.95
2023-03-05T08:18:13.863Z,55.65
2023-03-05T08:20:41.670Z,53.92
2023-03-05T08:23:09.002Z,53.25
2023-03-05T08:25:37.867Z,55.75
2023-03-05T08:28:05.300Z,54.05
2023-03-05T08:30:32.684Z,54.60
2023-03-05T08:33:00.035Z,56.05
2023-03-05T08:35:27.340Z,55.08
2023-03-05T08:37:54.609Z,58.63
2023-03-05T08:40:22.266Z,57.30
2023-03-05T08:42:51.947Z,57.75
2023-03-05T08:45:19.712Z,55.25
2023-03-05T08:47:47.076Z,55.45
2023-03-05T08:50:14.376Z,54.22
2023-03-05T08:52:41.602Z,56.30
2023-03-05T08:55:09.277Z,56.10
2023-03-05T08:57:36.913Z,54.63
2023-03-05T09:00:04.798Z,55.50
2023-03-05T09:02:32.277Z,52.90
2023-03-05T09:04:59.545Z,55.22
2023-03-05T09:07:27.178Z,54.58
2023-03-05T09:09:54.879Z,54.97
2023-03-05T09:12:22.331Z,54.92
2023-03-05T09:14:49.816Z,53.92
2023-03-05T09:17:17.149Z,53.92
2023-03-05T09:19:44.467Z,53.92
2023-03-05T09:22:11.790Z,54.63
2023-03-05T09:24:39.614Z,49.95
2023-03-05T09:27:07.003Z,54.08
2023-03-05T09:29:34.292Z,52.20
2023-03-05T09:32:01.655Z,49.10
2023-03-05T09:34:29.016Z,51.20
2023-03-05T09:36:56.381Z,51.60
2023-03-05T09:39:23.665Z,49.75
2023-03-05T09:42:18.140Z,49.85
2023-03-05T09:45:28.760Z,48.78
2023-03-05T09:48:05.689Z,47.65
2023-03-05T09:50:38.973Z,49.40
2023-03-05T09:53:40.223Z,48.95
2023-03-05T09:56:14.162Z,48.97
2023-03-05T09:58:46.172Z,48.03
2023-03-05T10:03:57.422Z,47.73
2023-03-05T10:06:26.738Z,43.83
2023-03-05T10:08:58.979Z,43.05
2023-03-05T10:11:55.020Z,42.88
2023-03-05T10:14:27.857Z,41.97
2023-03-05T10:17:19.777Z,41.42
2023-03-05T10:19:59.071Z,39.28
2023-03-05T10:22:31.943Z,38.90
2023-03-05T10:25:36.369Z,38.08
2023-03-05T10:28:19.083Z,36.13
2023-03-05T10:31:04.882Z,34.92
2023-03-05T10:33:54.594Z,35.17
2023-03-05T10:36:50.809Z,33.17
2023-03-05T10:39:47.336Z,33.25
2023-03-05T10:42:54.051Z,33.95
2023-03-05T10:45:26.619Z,35.35
2023-03-05T10:47:59.461Z,32.90
2023-03-05T10:50:33.517Z,32.15
2023-03-05T10:53:14.351Z,32.60
2023-03-05T10:55:42.368Z,32.25
2023-03-05T10:58:15.033Z,32.22
2023-03-05T11:01:06.721Z,31.95
2023-03-05T11:04:00.585Z,31.90
2023-03-05T11:06:45.772Z,30.95
2023-03-05T11:09:22.791Z,30.48
2023-03-05T11:12:13.615Z,31.63
2023-03-05T11:15:04.930Z,32.33
2023-03-05T11:17:39.645Z,36.50
2023-03-05T11:20:28.881Z,33.58
2023-03-05T11:23:18.289Z,32.10
2023-03-05T11:25:54.126Z,31.90
2023-03-05T11:28:37.172Z,32.80
2023-03-05T11:31:16.240Z,31.00
2023-03-05T11:34:02.083Z,32.22
2023-03-05T11:36:41.818Z,29.98
2023-03-05T11:39:18.226Z,31.42
2023-03-05T11:42:00.046Z,31.02
2023-03-05T11:44:34.907Z,32.85
2023-03-05T11:47:14.064Z,33.35
2023-03-05T11:49:45.566Z,33.63
2023-03-05T11:52:21.201Z,33.40
2023-03-05T11:54:56.865Z,32.15
2023-03-05T11:57:25.914Z,31.95
2023-03-05T11:59:56.321Z,31.88
2023-03-05T12:02:27.265Z,35.03
2023-03-05T12:04:56.029Z,36.97
2023-03-05T12:07:34.634Z,35.80
2023-03-05T12:10:02.648Z,37.30
2023-03-05T12:12:32.182Z,38.00
2023-03-05T12:15:17.379Z,39.60
2023-03-05T12:18:11.413Z,37.08
2023-03-05T12:21:02.706Z,35.60
2023-03-05T12:23:44.705Z,37.05
2023-03-05T12:26:12.145Z,35.97
2023-03-05T12:28:43.008Z,39.35
2023-03-05T12:31:11.506Z,37.90
2023-03-05T12:33:41.790Z,35.63
2023-03-05T12:36:21.254Z,37.63
2023-03-05T12:38:52.892Z,36.85
2023-03-05T12:41:24.936Z,36.17
2023-03-05T12:44:10.647Z,37.60
2023-03-05T12:46:43.857Z,38.05
2023-03-05T12:49:22.884Z,37.13
2023-03-05T12:51:53.082Z,37.78
2023-03-05T12:54:32.882Z,38.25
2023-03-05T12:57:04.418Z,37.97
2023-03-05T12:59:45.233Z,37.80
2023-03-05T13:02:23.913Z,36.55
2023-03-05T13:04:53.435Z,38.15
2023-03-05T13:07:20.691Z,37.83
2023-03-05T13:10:06.557Z,37.42
2023-03-05T13:12:36.393Z,35.92
2023-03-05T13:15:06.595Z,36.85
2023-03-05T13:17:38.293Z,36.25
2023-03-05T13:23:04.163Z,34.95
2023-03-05T13:25:32.344Z,36.28
2023-03-05T13:28:16.822Z,35.95
2023-03-05T13:30:57.127Z,34.10
2023-03-05T13:33:33.446Z,36.28
2023-03-05T13:36:01.469Z,34.33
2023-03-05T13:38:39.094Z,33.58
2023-03-05T13:41:16.008Z,31.63
2023-03-05T13:43:49.448Z,32.97
2023-03-05T13:46:42.036Z,33.05
2023-03-05T13:49:24.403Z,32.88
2023-03-05T13:51:57.790Z,33.42
2023-03-05T13:54:27.417Z,34.20
2023-03-05T13:56:58.950Z,34.60
2023-03-05T13:59:30.826Z,33.75
2023-03-05T14:02:00.989Z,32.50
2023-03-05T14:04:31.065Z,31.65
2023-03-05T14:07:39.277Z,32.05
2023-03-05T14:10:34.406Z,29.70
2023-03-05T14:13:06.127Z,29.90
2023-03-05T14:15:35.343Z,29.42
2023-03-05T14:18:17.033Z,30.58
2023-03-05T14:21:04.092Z,37.15
2023-03-05T14:23:37.516Z,28.27
2023-03-05T14:26:28.609Z,26.75
2023-03-05T14:31:30.797Z,28.13
2023-03-05T14:34:07.224Z,29.42
2023-03-05T14:36:35.716Z,27.83
2023-03-05T14:39:05.036Z,27.90
2023-03-05T14:41:41.529Z,30.17
2023-03-05T14:44:17.512Z,29.48
2023-03-05T14:46:49.957Z,26.13
2023-03-05T14:49:17.717Z,27.75
2023-03-05T14:51:46.454Z,27.60
2023-03-05T14:54:26.247Z,27.92
2023-03-05T14:56:54.050Z,28.52
2023-03-05T14:59:21.839Z,27.05
2023-03-05T15:01:50.859Z,29.15
2023-03-05T15:04:20.962Z,30.10
2023-03-05T15:06:51.166Z,27.38
2023-03-05T15:09:20.422Z,29.88
2023-03-05T15:11:48.263Z,29.30
2023-03-05T15:14:16.527Z,28.15
2023-03-05T15:16:45.837Z,26.42
2023-03-05T15:19:13.711Z,29.45
2023-03-05T15:21:41.891Z,29.00
2023-03-05T15:24:11.284Z,28.88
2023-03-05T15:26:39.265Z,28.60
2023-03-05T15:29:07.121Z,28.80
2023-03-05T15:31:38.646Z,27.42
2023-03-05T15:34:06.470Z,27.17
2023-03-05T15:36:33.938Z,28.45
2023-03-05T15:39:01.973Z,26.80
2023-03-05T15:41:30.066Z,27.92
2023-03-05T15:43:57.728Z,27.67
2023-03-05T15:46:25.184Z,26.90
2023-03-05T15:48:52.421Z,27.58
2023-03-05T15:51:20.441Z,27.05
2023-03-05T15:53:48.510Z,27.95
2023-03-05T15:56:19.757Z,28.20
2023-03-05T15:58:50.686Z,30.45
2023-03-05T16:01:23.381Z,29.08
2023-03-05T16:03:51.851Z,31.10
2023-03-05T16:06:23.316Z,35.63
2023-03-05T16:08:55.150Z,33.58
2023-03-05T16:11:22.978Z,31.08
2023-03-05T16:13:50.559Z,30.52
2023-03-05T16:16:19.183Z,27.55
2023-03-05T16:18:48.012Z,27.10
2023-03-05T16:21:15.887Z,29.27
2023-03-05T16:23:43.196Z,27.15
2023-03-05T16:26:10.626Z,28.63
2023-03-05T16:28:38.055Z,29.00
2023-03-05T16:31:05.639Z,29.27
2023-03-05T16:33:33.249Z,28.45
2023-03-05T16:36:21.086Z,30.63
2023-03-05T16:38:51.044Z,30.60
2023-03-05T16:41:21.961Z,32.20
2023-03-05T16:43:53.322Z,35.25
2023-03-05T16:46:20.802Z,40.80
2023-03-05T16:48:49.120Z,39.70
2023-03-05T16:51:16.393Z,39.40
2023-03-05T16:53:44.070Z,40.63
2023-03-05T16:56:12.138Z,39.88
2023-03-05T16:58:40.724Z,38.47
2023-03-05T17:01:16.316Z,44.03
2023-03-05T17:03:44.949Z,43.58
2023-03-05T17:06:18.729Z,42.05
2023-03-05T17:08:47.238Z,40.67
2023-03-05T17:11:16.040Z,43.38
2023-03-05T17:13:43.442Z,54.30
2023-03-05T17:16:14.230Z,56.97
2023-03-05T17:18:42.018Z,50.77
2023-03-05T17:21:10.530Z,47.58
2023-03-05T17:23:38.760Z,49.85
2023-03-05T17:26:12.606Z,54.25
2023-03-05T17:28:40.463Z,62.95
2023-03-05T17:31:09.003Z,70.55
2023-03-05T17:33:37.808Z,68.55
2023-03-05T17:36:06.011Z,65.68
2023-03-05T17:38:33.686Z,59.53
2023-03-05T17:41:01.477Z,55.95
2023-03-05T17:43:28.926Z,50.63
2023-03-05T17:46:01.883Z,45.28
2023-03-05T17:48:29.837Z,42.88
2023-03-05T17:50:58.711Z,38.80
2023-03-05T17:53:26.844Z,38.08
2023-03-05T17:55:54.080Z,35.08
2023-03-05T17:58:21.760Z,34.72
2023-03-05T18:00:49.556Z,34.78
2023-03-05T18:03:16.919Z,37.15
2023-03-05T18:05:44.709Z,38.80
2023-03-05T18:08:12.120Z,36.70
2023-03-05T18:10:39.516Z,36.58
2023-03-05T18:13:07.223Z,36.28
2023-03-05T18:15:35.967Z,36.45
2023-03-05T18:18:04.137Z,35.72
2023-03-05T18:20:35.917Z,39.17
2023-03-05T18:23:05.890Z,40.22
2023-03-05T18:25:33.756Z,36.70
2023-03-05T18:28:06.297Z,38.85
2023-03-05T18:30:34.642Z,39.72
2023-03-05T18:33:02.266Z,37.38
2023-03-05T18:35:31.243Z,36.50
2023-03-05T18:37:58.969Z,36.35
2023-03-05T18:40:29.923Z,35.45
2023-03-05T18:43:00.209Z,39.27
2023-03-05T18:45:28.814Z,37.33
2023-03-05T18:47:57.309Z,38.13
2023-03-05T18:50:26.512Z,37.22
2023-03-05T18:52:54.212Z,37.92
2023-03-05T18:55:24.903Z,34.53
2023-03-05T18:57:52.751Z,37.97
2023-03-05T19:00:24.960Z,33.13
2023-03-05T19:02:52.819Z,39.33
2023-03-05T19:05:20.998Z,38.53
2023-03-05T19:07:48.853Z,38.05
2023-03-05T19:10:17.633Z,34.60
2023-03-05T19:13:25.381Z,34.42
2023-03-05T19:15:53.983Z,35.10
2023-03-05T19:19:23.773Z,39.05
2023-03-05T19:21:58.568Z,37.78
2023-03-05T19:24:29.337Z,44.28
2023-03-05T19:27:00.942Z,38.83
2023-03-05T19:29:32.991Z,38.22
2023-03-05T19:32:00.694Z,38.60
2023-03-05T19:34:28.690Z,42.22
2023-03-05T19:36:56.378Z,40.58
2023-03-05T19:39:24.271Z,38.47
2023-03-05T19:41:52.212Z,40.70
2023-03-05T19:44:19.636Z,49.63
2023-03-05T19:46:48.557Z,48.35
2023-03-05T19:49:18.225Z,51.67
2023-03-05T19:51:46.853Z,53.15
2023-03-05T19:54:15.870Z,52.53
2023-03-05T19:56:44.766Z,55.47
2023-03-05T19:59:17.107Z,58.40
2023-03-05T20:01:45.741Z,62.85
2023-03-05T20:04:17.214Z,66.18
2023-03-05T20:06:45.971Z,62.55
2023-03-05T20:09:14.913Z,71.15
2023-03-05T20:11:42.550Z,68.57
2023-03-05T20:14:13.018Z,79.88
2023-03-05T20:16:41.354Z,80.30
2023-03-05T20:19:10.822Z,69.50
2023-03-05T20:21:41.955Z,65.90
2023-03-05T20:24:14.311Z,65.10
2023-03-05T20:26:43.297Z,56.45
2023-03-05T20:29:11.954Z,57.85
2023-03-05T20:31:40.957Z,49.80
2023-03-05T20:34:14.825Z,43.90
2023-03-05T20:36:42.262Z,39.33
2023-03-05T20:39:10.555Z,39.65
2023-03-05T20:41:39.609Z,35.60
2023-03-05T20:44:08.833Z,31.73
2023-03-05T20:47:33.113Z,26.65
2023-03-05T20:50:04.563Z,25.83
2023-03-05T20:52:32.094Z,26.35
2023-03-05T20:54:59.985Z,25.45
2023-03-05T20:57:27.742Z,26.25
2023-03-05T20:59:55.053Z,24.88
2023-03-05T21:02:22.837Z,24.67
2023-03-05T21:04:50.171Z,25.67
2023-03-05T21:07:17.442Z,26.70
2023-03-05T21:09:45.343Z,29.50
2023-03-05T21:12:13.637Z,29.13
2023-03-05T21:14:41.369Z,26.92
2023-03-05T21:17:08.926Z,21.45
2023-03-05T21:19:37.962Z,32.80
2023-03-05T21:22:05.649Z,36.88
2023-03-05T21:25:21.090Z,36.63
2023-03-05T21:27:49.596Z,37.70
2023-03-05T21:30:18.776Z,31.77
2023-03-05T21:32:46.632Z,30.67
2023-03-05T21:35:20.780Z,32.40
2023-03-05T21:37:49.107Z,30.17
2023-03-05T21:40:18.760Z,31.77
2023-03-05T21:42:47.158Z,29.15
2023-03-05T21:45:18.160Z,32.30
2023-03-05T21:47:46.107Z,39.77
2023-03-05T21:50:14.903Z,37.30
2023-03-05T21:52:42.926Z,38.17
2023-03-05T21:55:15.986Z,33.88
2023-03-05T21:57:43.962Z,52.65
2023-03-05T22:00:13.872Z,37.72
2023-03-05T22:02:41.917Z,40.53
2023-03-05T22:05:13.281Z,39.33
2023-03-05T22:07:40.961Z,40.50
2023-03-05T22:10:15.824Z,39.17
2023-03-05T22:13:11.752Z,37.63
2023-03-05T22:15:49.917Z,37.55
2023-03-05T22:18:20.794Z,38.80
2023-03-05T22:20:48.825Z,38.70
2023-03-05T22:23:17.473Z,39.90
2023-03-05T22:25:45.594Z,39.30
2023-03-05T22:28:13.523Z,37.97
2023-03-05T22:30:44.491Z,43.13
2023-03-05T22:33:12.567Z,40.43
2023-03-05T22:35:41.091Z,36.85
2023-03-05T22:38:09.742Z,42.95
2023-03-05T22:40:41.457Z,48.10
2023-03-05T22:43:08.872Z,40.22
2023-03-05T22:45:36.367Z,41.78
2023-03-05T22:48:04.057Z,42.95
2023-03-05T22:50:31.615Z,42.47
2023-03-05T22:52:59.822Z,34.00
2023-03-05T22:55:27.157Z,32.22
2023-03-05T22:57:54.521Z,34.33
2023-03-05T23:00:23.914Z,33.60
